Time;durP1;ratioP1;P1;durP2;ratioP2;P2;SDS_P1;SDS_P2;PMS_P1;PMS_P2;Temp;Humidity;BMP_temperature;BMP_pressure;BME280_temperature;BME280_humidity;BME280_pressure;Samples;Min_cycle;Max_cycle;Signal;HPM_P1;HPM_P2
2021/06/22 00:01:06;;;;;;;5.10;2.15;;;25.10;52.40;;;;;;6262496;28;20041;-75
2021/06/22 00:04:07;;;;;;;5.22;2.10;;;25.00;52.70;;;;;;6267044;28;20124;-75
2021/06/22 00:07:08;;;;;;;10.98;2.15;;;25.00;53.00;;;;;;6271105;28;20110;-75
2021/06/22 00:10:10;;;;;;;7.15;2.13;;;24.90;53.10;;;;;;6271645;28;20029;-75
2021/06/22 00:13:11;;;;;;;5.80;2.20;;;24.90;53.20;;;;;;6267362;28;20037;-75
2021/06/22 00:16:12;;;;;;;5.60;1.85;;;24.90;53.40;;;;;;6285175;28;20036;-74
2021/06/22 00:19:13;;;;;;;7.00;1.98;;;24.90;53.50;;;;;;6270705;28;20040;-74
2021/06/22 00:22:14;;;;;;;4.72;1.77;;;24.90;53.60;;;;;;6284051;28;20401;-75
2021/06/22 00:25:17;;;;;;;6.10;2.03;;;24.80;53.50;;;;;;6271452;28;20123;-75
2021/06/22 00:28:18;;;;;;;8.60;2.28;;;24.80;53.70;;;;;;6263521;28;20071;-75
2021/06/22 00:31:19;;;;;;;4.07;1.67;;;24.70;53.80;;;;;;6248508;28;20374;-75
2021/06/22 00:34:20;;;;;;;4.70;1.90;;;24.70;53.80;;;;;;6239804;28;20069;-75
2021/06/22 00:37:21;;;;;;;5.95;1.40;;;24.70;53.80;;;;;;6251233;28;20068;-75
2021/06/22 00:40:23;;;;;;;6.55;2.25;;;24.70;53.70;;;;;;6278834;28;20029;-75
2021/06/22 00:43:24;;;;;;;11.77;1.70;;;24.60;53.80;;;;;;6265043;28;20110;-75
2021/06/22 00:46:25;;;;;;;4.47;1.60;;;24.50;53.90;;;;;;6268044;28;20033;-75
2021/06/22 00:49:26;;;;;;;5.78;1.70;;;24.50;54.10;;;;;;6267053;28;20034;-75
2021/06/22 00:52:30;;;;;;;6.03;2.00;;;24.50;54.20;;;;;;6284824;28;20029;-75
2021/06/22 00:55:33;;;;;;;6.45;1.77;;;24.50;54.10;;;;;;6283703;28;20041;-75
2021/06/22 00:58:35;;;;;;;5.22;2.08;;;24.50;54.10;;;;;;6278769;28;20053;-75
2021/06/22 01:01:36;;;;;;;6.22;1.60;;;24.50;53.90;;;;;;6243101;28;20419;-75
2021/06/22 01:04:39;;;;;;;8.57;1.50;;;24.50;53.90;;;;;;6276222;28;20484;-74
2021/06/22 01:08:00;;;;;;;7.30;2.00;;;24.50;53.80;;;;;;6274732;28;20037;-75
2021/06/22 01:11:03;;;;;;;6.22;1.48;;;24.50;53.80;;;;;;6308966;28;20351;-77
2021/06/22 01:14:04;;;;;;;7.68;1.85;;;24.50;53.60;;;;;;6275362;28;20398;-75
2021/06/22 01:17:05;;;;;;;7.25;1.77;;;24.50;53.50;;;;;;6291138;28;20029;-75
2021/06/22 01:20:07;;;;;;;2.70;1.75;;;24.60;53.40;;;;;;6271835;28;20454;-74
2021/06/22 01:23:13;;;;;;;4.60;2.10;;;24.60;53.30;;;;;;6283138;28;20049;-75
2021/06/22 01:26:15;;;;;;;2.92;1.83;;;24.70;53.20;;;;;;6267138;28;20044;-75
2021/06/22 01:29:17;;;;;;;2.67;1.63;;;24.70;52.90;;;;;;6283438;28;20462;-75
2021/06/22 01:32:18;;;;;;;10.30;2.05;;;24.80;53.50;;;;;;6253708;28;20029;-75
2021/06/22 01:35:20;;;;;;;7.47;2.05;;;24.80;52.70;;;;;;6273824;28;20066;-75
2021/06/22 01:38:22;;;;;;;4.40;1.80;;;24.80;52.60;;;;;;6308052;28;20095;-75
2021/06/22 01:41:24;;;;;;;4.10;1.90;;;24.80;52.40;;;;;;6273388;28;20045;-75
2021/06/22 01:44:32;;;;;;;2.08;1.50;;;24.80;52.40;;;;;;6273827;28;20456;-75
2021/06/22 01:47:34;;;;;;;2.78;1.67;;;24.80;52.40;;;;;;6274296;28;20037;-75
2021/06/22 01:50:37;;;;;;;4.43;1.90;;;24.80;52.40;;;;;;6302168;28;20080;-75
2021/06/22 01:53:38;;;;;;;2.35;1.30;;;24.80;52.30;;;;;;6290274;28;20033;-75
2021/06/22 01:56:51;;;;;;;5.93;1.60;;;24.90;52.30;;;;;;6305715;28;20060;-75
2021/06/22 01:59:56;;;;;;;4.00;1.60;;;24.90;52.30;;;;;;6274180;28;20120;-75
2021/06/22 02:03:17;;;;;;;4.13;1.85;;;24.80;52.40;;;;;;6273583;28;20044;-75
2021/06/22 02:06:20;;;;;;;7.05;1.83;;;24.90;52.60;;;;;;6275308;28;20040;-76
2021/06/22 02:09:41;;;;;;;4.05;2.28;;;24.80;52.60;;;;;;6274410;28;20033;-75
2021/06/22 02:12:47;;;;;;;4.45;1.60;;;24.90;52.80;;;;;;6270102;28;20037;-75
2021/06/22 02:15:49;;;;;;;6.20;2.60;;;24.80;52.90;;;;;;6286577;28;20116;-75
2021/06/22 02:18:51;;;;;;;10.77;2.38;;;24.80;53.00;;;;;;6258200;28;20033;-76
2021/06/22 02:21:52;;;;;;;3.53;1.92;;;24.80;53.30;;;;;;6273427;28;20048;-75
2021/06/22 02:25:00;;;;;;;10.40;2.45;;;24.70;53.60;;;;;;6291461;28;20029;-75
2021/06/22 02:28:07;;;;;;;7.20;2.00;;;24.70;54.30;;;;;;6273235;28;20033;-75
2021/06/22 02:31:09;;;;;;;2.63;1.75;;;24.60;54.30;;;;;;6273389;28;20108;-75
2021/06/22 02:34:11;;;;;;;5.75;1.98;;;24.50;54.80;;;;;;6276578;28;20044;-76
2021/06/22 02:37:13;;;;;;;5.22;1.95;;;24.40;55.30;;;;;;6279220;28;20029;-75
2021/06/22 02:40:18;;;;;;;6.70;1.90;;;24.20;55.70;;;;;;6281553;28;20025;-76
2021/06/22 02:43:23;;;;;;;3.45;1.90;;;24.10;56.50;;;;;;6285478;28;20045;-76
2021/06/22 02:46:26;;;;;;;4.22;1.52;;;23.90;57.40;;;;;;6286584;28;20037;-75
2021/06/22 02:49:28;;;;;;;5.55;0.80;;;23.60;58.40;;;;;;6307474;28;20076;-74
2021/06/22 02:52:29;;;;;;;0.90;0.50;;;23.20;59.20;;;;;;6260064;28;20037;-75
2021/06/22 02:55:30;;;;;;;4.85;0.50;;;22.80;59.20;;;;;;6258104;28;20037;-75
2021/06/22 02:58:40;;;;;;;3.80;0.60;;;22.30;59.80;;;;;;6267682;28;20044;-75
2021/06/22 03:01:45;;;;;;;9.68;0.90;;;21.90;61.40;;;;;;6283556;28;20049;-75
2021/06/22 03:04:48;;;;;;;0.75;0.40;;;21.50;62.40;;;;;;6241331;28;20057;-75
2021/06/22 03:07:50;;;;;;;0.30;0.30;;;21.20;63.80;;;;;;6240255;28;20045;-75
2021/06/22 03:10:52;;;;;;;0.85;0.15;;;21.00;64.30;;;;;;6274429;28;20117;-74
2021/06/22 03:13:53;;;;;;;0.57;0.10;;;20.80;64.90;;;;;;6243082;28;20057;-75
2021/06/22 03:17:11;;;;;;;0.30;0.30;;;20.70;65.70;;;;;;6247530;28;20029;-76
2021/06/22 03:20:18;;;;;;;0.40;0.30;;;20.60;66.00;;;;;;6270421;28;20025;-76
2021/06/22 03:23:19;;;;;;;0.50;0.40;;;20.50;66.20;;;;;;6306622;28;20029;-76
2021/06/22 03:26:21;;;;;;;1.75;0.30;;;20.40;67.10;;;;;;6293066;28;20036;-76
2021/06/22 03:29:24;;;;;;;1.38;0.47;;;20.50;68.00;;;;;;6260877;28;20055;-75
2021/06/22 03:32:26;;;;;;;0.50;0.45;;;20.30;68.40;;;;;;6306364;28;20033;-75
2021/06/22 03:35:29;;;;;;;0.60;0.60;;;20.30;68.90;;;;;;6275361;28;20374;-76
2021/06/22 03:38:30;;;;;;;0.77;0.30;;;20.30;68.80;;;;;;6273927;28;20044;-75
2021/06/22 03:41:32;;;;;;;0.52;0.50;;;20.30;68.90;;;;;;6281069;28;20041;-76
2021/06/22 03:44:34;;;;;;;3.00;0.43;;;20.30;69.00;;;;;;6286984;28;20041;-74
2021/06/22 03:47:39;;;;;;;0.50;0.40;;;20.30;69.30;;;;;;6272204;28;20442;-75
2021/06/22 03:50:41;;;;;;;6.22;0.60;;;20.30;69.30;;;;;;6279655;28;20037;-74
2021/06/22 03:53:44;;;;;;;2.65;0.40;;;20.30;69.20;;;;;;6266507;28;20036;-75
2021/06/22 03:56:45;;;;;;;0.25;0.25;;;20.40;68.90;;;;;;6305468;28;20036;-75
2021/06/22 03:59:54;;;;;;;0.63;0.30;;;20.40;68.60;;;;;;6273113;28;20072;-75
2021/06/22 04:02:58;;;;;;;0.60;0.43;;;20.40;68.60;;;;;;6255679;28;20048;-75
2021/06/22 04:06:00;;;;;;;1.00;0.50;;;20.50;68.70;;;;;;6306054;28;20107;-75
2021/06/22 04:09:05;;;;;;;1.23;0.88;;;20.50;68.70;;;;;;6270749;28;20045;-75
2021/06/22 04:12:08;;;;;;;0.60;0.60;;;20.60;68.70;;;;;;6272925;28;20033;-74
2021/06/22 04:15:10;;;;;;;1.55;0.57;;;20.80;68.70;;;;;;6278856;28;20064;-75
2021/06/22 04:18:11;;;;;;;1.42;1.00;;;20.80;68.90;;;;;;6288230;28;20351;-75
2021/06/22 04:21:13;;;;;;;1.50;0.60;;;20.90;68.90;;;;;;6280823;28;20037;-74
2021/06/22 04:24:19;;;;;;;4.18;0.80;;;21.00;69.00;;;;;;6305120;28;20028;-74
2021/06/22 04:27:21;;;;;;;1.20;0.73;;;21.00;69.00;;;;;;6256055;28;20035;-75
2021/06/22 04:30:23;;;;;;;2.55;0.70;;;21.10;68.70;;;;;;6255885;28;20048;-74
2021/06/22 04:33:24;;;;;;;1.20;0.73;;;21.10;68.50;;;;;;6255558;28;20036;-74
2021/06/22 04:36:25;;;;;;;0.60;0.30;;;21.10;68.40;;;;;;6247728;28;20041;-75
2021/06/22 04:39:26;;;;;;;5.65;0.80;;;21.10;68.20;;;;;;6286823;28;20037;-76
2021/06/22 04:42:27;;;;;;;1.10;0.63;;;21.10;68.20;;;;;;6271296;28;20112;-76
2021/06/22 04:45:29;;;;;;;1.73;0.68;;;21.10;68.10;;;;;;6270970;28;20029;-75
2021/06/22 04:48:30;;;;;;;2.15;0.70;;;21.10;68.00;;;;;;6264396;28;20037;-76
2021/06/22 04:51:31;;;;;;;1.75;0.95;;;21.10;68.00;;;;;;6280571;28;20030;-75
2021/06/22 04:54:35;;;;;;;104.72;39.10;;;21.20;67.80;;;;;;6263863;28;20029;-76
2021/06/22 04:57:36;;;;;;;4.63;1.85;;;21.30;67.80;;;;;;6267916;28;20087;-76
2021/06/22 05:00:37;;;;;;;4.15;1.80;;;21.40;67.80;;;;;;6262896;28;20370;-74
2021/06/22 05:03:38;;;;;;;3.15;1.13;;;21.50;67.40;;;;;;6254949;28;20135;-74
2021/06/22 05:06:40;;;;;;;2.65;1.38;;;21.50;66.80;;;;;;6250770;28;20040;-75
2021/06/22 05:09:41;;;;;;;1.40;0.70;;;21.60;66.40;;;;;;6280001;28;20068;-76
2021/06/22 05:12:43;;;;;;;1.60;0.70;;;21.60;65.90;;;;;;6276691;28;20071;-75
2021/06/22 05:15:44;;;;;;;5.63;0.90;;;21.60;65.70;;;;;;6279131;28;20452;-75
2021/06/22 05:18:45;;;;;;;1.02;0.70;;;21.70;65.60;;;;;;6305326;28;20037;-75
2021/06/22 05:21:46;;;;;;;1.92;0.70;;;21.70;65.60;;;;;;6271071;28;20049;-75
2021/06/22 05:24:47;;;;;;;0.90;0.60;;;21.70;65.30;;;;;;6272359;28;20456;-76
2021/06/22 05:27:49;;;;;;;2.75;0.88;;;21.80;65.20;;;;;;6270150;28;20056;-75
2021/06/22 05:30:51;;;;;;;0.63;0.50;;;21.80;65.00;;;;;;6266549;28;20488;-75
2021/06/22 05:33:52;;;;;;;3.00;0.80;;;21.90;65.00;;;;;;6270322;28;20195;-75
2021/06/22 05:36:52;;;;;;;0.80;0.68;;;21.90;64.60;;;;;;6276159;28;20190;-75
2021/06/22 05:39:53;;;;;;;1.63;0.90;;;22.00;64.30;;;;;;6250528;28;20072;-75
2021/06/22 05:42:57;;;;;;;0.82;0.70;;;22.10;64.00;;;;;;6244530;28;20038;-75
2021/06/22 05:45:58;;;;;;;1.75;0.77;;;22.20;63.60;;;;;;6277145;28;20048;-76
2021/06/22 05:48:59;;;;;;;1.67;0.85;;;22.30;63.20;;;;;;6252186;28;20390;-75
2021/06/22 05:52:02;;;;;;;3.78;0.95;;;22.40;63.00;;;;;;6269277;28;20042;-74
2021/06/22 05:55:04;;;;;;;1.88;1.05;;;22.50;62.90;;;;;;6271802;28;20162;-74
2021/06/22 05:58:05;;;;;;;3.80;0.80;;;22.60;62.70;;;;;;6275548;28;20112;-74
2021/06/22 06:01:06;;;;;;;1.63;0.90;;;22.60;62.50;;;;;;6276433;28;20106;-76
2021/06/22 06:04:07;;;;;;;1.73;0.98;;;22.70;62.40;;;;;;6274187;28;20029;-74
2021/06/22 06:07:08;;;;;;;4.15;0.80;;;22.80;62.30;;;;;;6275167;28;20033;-76
2021/06/22 06:10:11;;;;;;;2.72;1.35;;;23.00;61.80;;;;;;6276634;28;20043;-76
2021/06/22 06:13:12;;;;;;;3.67;1.45;;;23.00;61.60;;;;;;6274867;28;20040;-75
2021/06/22 06:16:13;;;;;;;2.25;0.98;;;23.00;61.30;;;;;;6289061;28;20071;-75
2021/06/22 06:19:14;;;;;;;3.65;0.77;;;23.00;61.10;;;;;;6270034;28;20032;-76
2021/06/22 06:22:15;;;;;;;3.08;0.88;;;23.00;60.60;;;;;;6250646;28;20049;-75
2021/06/22 06:25:17;;;;;;;2.72;1.10;;;23.00;60.60;;;;;;6266459;28;20033;-75
2021/06/22 06:28:25;;;;;;;3.38;1.00;;;22.90;60.90;;;;;;6265807;28;20116;-75
2021/06/22 06:31:26;;;;;;;2.45;1.20;;;22.90;61.10;;;;;;6248961;28;20037;-75
2021/06/22 06:34:27;;;;;;;1.70;0.90;;;23.00;60.90;;;;;;6287585;28;20457;-75
2021/06/22 06:37:28;;;;;;;1.20;0.85;;;23.00;60.70;;;;;;6307101;28;20340;-75
2021/06/22 06:40:29;;;;;;;1.85;0.98;;;23.00;60.60;;;;;;6288989;28;20036;-75
2021/06/22 06:43:30;;;;;;;1.20;1.00;;;23.00;60.40;;;;;;6273427;28;20401;-75
2021/06/22 06:46:31;;;;;;;4.47;0.80;;;23.00;60.00;;;;;;6289747;28;20045;-76
2021/06/22 06:49:35;;;;;;;1.00;0.90;;;23.00;60.00;;;;;;6273834;28;20084;-75
2021/06/22 06:52:36;;;;;;;3.80;1.00;;;23.00;60.00;;;;;;6273405;28;20061;-76
2021/06/22 06:55:46;;;;;;;3.60;1.15;;;23.00;60.20;;;;;;6273260;28;20055;-77
2021/06/22 06:58:47;;;;;;;2.25;0.73;;;22.90;60.40;;;;;;6275875;28;20036;-76
2021/06/22 07:01:48;;;;;;;2.58;0.90;;;23.00;60.60;;;;;;6283550;28;20079;-78
2021/06/22 07:04:49;;;;;;;5.55;1.00;;;23.00;60.90;;;;;;6277285;28;20399;-80
2021/06/22 07:07:50;;;;;;;3.03;1.10;;;23.10;60.70;;;;;;6276835;28;20121;-79
2021/06/22 07:10:52;;;;;;;9.52;1.00;;;23.30;60.30;;;;;;6274746;28;20136;-80
2021/06/22 07:13:54;;;;;;;2.50;0.90;;;23.50;59.90;;;;;;6274813;28;20100;-75
2021/06/22 07:16:54;;;;;;;1.08;1.00;;;23.70;59.20;;;;;;6274269;28;20458;-76
2021/06/22 07:19:56;;;;;;;1.25;0.80;;;23.70;58.80;;;;;;6272546;28;20060;-75
2021/06/22 07:22:57;;;;;;;0.93;0.68;;;23.70;58.70;;;;;;6271955;28;20055;-75
2021/06/22 07:25:58;;;;;;;1.55;0.90;;;23.80;58.40;;;;;;6273319;28;20056;-76
2021/06/22 07:28:59;;;;;;;4.80;0.77;;;23.90;58.10;;;;;;6273215;28;20041;-76
2021/06/22 07:32:00;;;;;;;0.93;0.70;;;24.00;57.90;;;;;;6294788;28;20114;-76
2021/06/22 07:35:01;;;;;;;1.48;0.50;;;24.10;58.00;;;;;;6300518;28;20069;-75
2021/06/22 07:38:03;;;;;;;3.17;0.77;;;24.20;57.50;;;;;;6286729;28;20048;-76
2021/06/22 07:41:04;;;;;;;1.80;0.50;;;24.30;56.50;;;;;;6280449;28;20130;-75
2021/06/22 07:44:05;;;;;;;4.60;0.70;;;24.30;56.50;;;;;;6289894;28;20043;-75
2021/06/22 07:47:06;;;;;;;1.38;0.73;;;24.30;56.30;;;;;;6274175;28;20053;-75
2021/06/22 07:50:09;;;;;;;0.85;0.55;;;24.40;56.00;;;;;;6274114;28;20025;-76
2021/06/22 07:53:10;;;;;;;1.35;0.88;;;24.40;55.90;;;;;;6271307;28;20037;-75
2021/06/22 07:56:11;;;;;;;1.45;0.88;;;24.50;55.60;;;;;;6265661;28;20374;-75
2021/06/22 07:59:12;;;;;;;0.95;0.50;;;24.60;55.10;;;;;;6272111;28;20060;-75
2021/06/22 08:02:13;;;;;;;1.50;0.70;;;24.70;54.90;;;;;;6271752;28;20037;-75
2021/06/22 08:05:14;;;;;;;2.58;0.60;;;24.80;54.60;;;;;;6271534;28;20094;-75
2021/06/22 08:08:18;;;;;;;2.08;0.77;;;24.90;54.20;;;;;;6271917;28;20128;-75
2021/06/22 08:11:18;;;;;;;1.10;0.60;;;25.00;53.80;;;;;;6272397;28;20033;-75
2021/06/22 08:14:19;;;;;;;0.85;0.52;;;25.20;53.60;;;;;;6271907;28;20059;-75
2021/06/22 08:17:22;;;;;;;0.82;0.60;;;25.30;53.20;;;;;;6271163;28;20053;-75
2021/06/22 08:20:24;;;;;;;1.25;0.73;;;25.60;52.80;;;;;;6270729;28;20475;-74
2021/06/22 08:23:25;;;;;;;5.47;0.70;;;25.80;52.20;;;;;;6271059;28;20131;-74
2021/06/22 08:26:26;;;;;;;0.50;0.40;;;25.90;51.60;;;;;;6271515;28;20128;-75
2021/06/22 08:29:27;;;;;;;0.98;0.60;;;26.00;51.00;;;;;;6272121;28;20044;-76
2021/06/22 08:32:28;;;;;;;3.50;0.77;;;26.00;50.80;;;;;;6304995;28;20037;-74
2021/06/22 08:35:31;;;;;;;1.35;0.77;;;26.20;50.40;;;;;;6272735;28;20037;-75
2021/06/22 08:38:32;;;;;;;1.17;0.60;;;26.30;50.00;;;;;;6270877;28;20033;-76
2021/06/22 08:41:34;;;;;;;5.18;0.80;;;26.30;49.40;;;;;;6271856;28;20062;-75
2021/06/22 08:44:35;;;;;;;4.35;0.68;;;26.30;49.30;;;;;;6271971;28;20037;-75
2021/06/22 08:47:37;;;;;;;2.90;0.75;;;26.10;49.00;;;;;;6271634;28;20107;-76
2021/06/22 08:50:43;;;;;;;0.70;0.50;;;26.10;49.30;;;;;;6272211;28;20033;-75
2021/06/22 08:53:44;;;;;;;0.75;0.43;;;26.10;49.30;;;;;;6287778;28;20095;-75
2021/06/22 08:56:45;;;;;;;0.40;0.40;;;26.20;49.20;;;;;;6272637;28;20035;-76
2021/06/22 08:59:47;;;;;;;0.63;0.50;;;26.10;49.20;;;;;;6288088;28;20048;-74
2021/06/22 09:03:06;;;;;;;4.35;0.55;;;26.40;49.20;;;;;;6270443;28;20037;-75
2021/06/22 09:06:07;;;;;;;1.00;0.90;;;26.50;48.80;;;;;;6259250;28;20033;-75
2021/06/22 09:09:10;;;;;;;8.20;0.63;;;26.60;48.50;;;;;;6292974;28;20040;-75
2021/06/22 09:12:11;;;;;;;0.82;0.47;;;26.60;48.20;;;;;;6292748;28;20434;-75
2021/06/22 09:15:26;;;;;;;0.95;0.60;;;26.70;48.10;;;;;;6292616;28;20033;-75
2021/06/22 09:18:36;;;;;;;1.55;0.85;;;26.70;47.80;;;;;;6306491;28;20118;-75
2021/06/22 09:21:42;;;;;;;2.28;0.57;;;26.80;47.50;;;;;;6289156;28;20108;-76
2021/06/22 09:25:11;;;;;;;2.67;2.25;;;27.00;47.30;;;;;;6275033;28;20350;-75
2021/06/22 09:28:16;;;;;;;2.33;0.60;;;27.10;47.10;;;;;;6291235;28;20061;-75
2021/06/22 09:31:20;;;;;;;3.53;0.55;;;27.30;46.70;;;;;;6290483;28;20037;-75
2021/06/22 09:34:26;;;;;;;5.57;0.70;;;27.40;46.50;;;;;;6296962;28;20070;-75
2021/06/22 09:37:47;;;;;;;1.20;0.70;;;27.50;46.40;;;;;;6314676;28;20037;-75
2021/06/22 09:41:01;;;;;;;1.52;0.60;;;27.60;46.40;;;;;;6277972;28;20043;-75
2021/06/22 09:44:07;;;;;;;1.13;0.60;;;27.80;46.00;;;;;;6260078;28;20411;-76
2021/06/22 09:47:10;;;;;;;1.63;1.08;;;27.90;45.20;;;;;;6273804;28;20443;-74
2021/06/22 09:50:39;;;;;;;0.80;0.50;;;28.00;44.70;;;;;;6274186;28;20086;-75
2021/06/22 09:53:40;;;;;;;1.20;0.60;;;28.10;44.30;;;;;;6257300;28;20043;-75
2021/06/22 09:56:59;;;;;;;1.05;0.57;;;28.20;44.00;;;;;;6277867;28;20608;-76
2021/06/22 10:00:08;;;;;;;0.70;0.70;;;28.30;43.80;;;;;;6272589;28;20032;-75
2021/06/22 10:03:11;;;;;;;1.60;0.57;;;28.10;43.70;;;;;;6278207;28;20487;-75
2021/06/22 10:06:14;;;;;;;1.33;0.63;;;28.30;43.60;;;;;;6307078;28;20085;-74
2021/06/22 10:09:20;;;;;;;6.63;0.50;;;28.20;43.60;;;;;;6301378;28;20028;-75
2021/06/22 10:12:24;;;;;;;0.65;0.65;;;28.20;43.80;;;;;;6307869;28;20096;-75
2021/06/22 10:15:25;;;;;;;0.70;0.57;;;28.20;43.90;;;;;;6299597;28;20059;-75
2021/06/22 10:18:27;;;;;;;0.90;0.70;;;28.10;44.10;;;;;;6300278;28;20036;-76
2021/06/22 10:21:29;;;;;;;3.25;2.42;;;28.10;44.40;;;;;;6314606;28;20457;-76
2021/06/22 10:24:30;;;;;;;2.05;1.25;;;28.00;44.40;;;;;;6299343;28;20044;-76
2021/06/22 10:27:31;;;;;;;4.43;0.70;;;28.00;44.40;;;;;;6314643;28;20109;-74
2021/06/22 10:30:32;;;;;;;0.90;0.57;;;28.20;44.80;;;;;;6314620;28;20046;-75
2021/06/22 10:33:33;;;;;;;0.73;0.60;;;28.00;44.90;;;;;;6297028;28;20052;-76
2021/06/22 10:36:40;;;;;;;1.05;0.55;;;28.10;44.80;;;;;;6314601;28;20032;-76
2021/06/22 10:39:53;;;;;;;0.75;0.57;;;28.10;44.80;;;;;;6290447;28;20037;-77
2021/06/22 10:43:01;;;;;;;1.15;0.82;;;28.20;44.50;;;;;;6272715;28;20065;-75
2021/06/22 10:46:04;;;;;;;;;;;28.40;44.10;;;;;;6249412;28;20113;-76
2021/06/22 10:49:19;;;;;;;3.10;0.70;;;28.70;43.40;;;;;;6289528;28;20280;-75
2021/06/22 10:55:52;;;;;;;1.48;0.75;;;29.20;42.50;;;;;;6290045;28;20025;-76
2021/06/22 10:59:12;;;;;;;4.13;0.85;;;29.20;42.30;;;;;;6294529;28;20037;-74
2021/06/22 11:02:13;;;;;;;0.75;0.60;;;29.30;42.00;;;;;;6309907;28;20086;-75
2021/06/22 11:05:16;;;;;;;1.70;0.82;;;29.30;41.70;;;;;;6320128;28;20032;-75
2021/06/22 11:08:30;;;;;;;1.20;0.70;;;29.40;41.70;;;;;;6319676;28;20126;-74
2021/06/22 11:11:31;;;;;;;1.25;0.90;;;30.20;40.30;;;;;;6320786;28;20142;-77
2021/06/22 11:15:02;;;;;;;5.75;0.80;;;31.30;38.90;;;;;;6318674;28;20185;-76
2021/06/22 11:18:06;;;;;;;1.65;0.82;;;32.20;37.20;;;;;;6317288;28;20145;-75
2021/06/22 11:21:10;;;;;;;1.67;1.00;;;32.80;35.80;;;;;;6287359;28;20065;-75
2021/06/22 11:24:15;;;;;;;1.45;0.90;;;33.40;35.20;;;;;;6272483;28;20106;-75
2021/06/22 11:27:15;;;;;;;4.38;0.77;;;33.40;34.50;;;;;;6307614;28;20045;-74
2021/06/22 11:30:36;;;;;;;1.60;0.80;;;32.90;34.90;;;;;;6292600;28;20029;-74
2021/06/22 11:33:49;;;;;;;2.10;0.93;;;33.40;34.80;;;;;;6285270;28;20032;-75
2021/06/22 11:36:55;;;;;;;0.75;0.57;;;34.20;33.50;;;;;;6291858;28;20366;-75
2021/06/22 11:40:06;;;;;;;1.42;0.73;;;35.00;32.60;;;;;;6307808;28;20403;-75
2021/06/22 11:43:08;;;;;;;1.23;0.80;;;35.40;31.30;;;;;;6269559;28;20084;-74
2021/06/22 11:46:29;;;;;;;0.60;0.60;;;35.80;30.60;;;;;;6268649;28;20335;-75
2021/06/22 11:49:44;;;;;;;1.70;0.88;;;36.10;30.20;;;;;;6268451;28;20152;-75
2021/06/22 11:52:50;;;;;;;1.05;0.70;;;36.50;29.50;;;;;;6268097;28;20064;-75
2021/06/22 11:55:53;;;;;;;3.20;0.80;;;36.60;29.20;;;;;;6277409;28;20090;-76
2021/06/22 11:58:54;;;;;;;2.28;0.60;;;36.80;29.20;;;;;;6277134;28;20364;-75
2021/06/22 12:01:56;;;;;;;3.17;0.60;;;37.10;29.00;;;;;;6294420;28;20032;-75
2021/06/22 12:04:57;;;;;;;0.57;0.57;;;37.50;28.40;;;;;;6295212;28;20120;-76
2021/06/22 12:08:06;;;;;;;3.50;1.00;;;37.40;28.20;;;;;;6284853;28;20112;-76
2021/06/22 12:11:08;;;;;;;1.63;0.75;;;37.30;28.40;;;;;;6277607;28;20302;-74
2021/06/22 12:14:13;;;;;;;2.63;0.80;;;37.20;28.40;;;;;;6311671;28;20108;-75
2021/06/22 12:17:19;;;;;;;3.85;0.90;;;37.20;28.40;;;;;;6294677;28;20120;-74
2021/06/22 12:20:22;;;;;;;3.63;0.75;;;37.40;28.10;;;;;;6293939;28;20035;-76
2021/06/22 12:23:23;;;;;;;0.50;0.50;;;37.50;27.70;;;;;;6270077;28;20073;-75
2021/06/22 12:26:24;;;;;;;2.42;1.15;;;37.60;27.60;;;;;;6270230;28;20092;-75
2021/06/22 12:29:33;;;;;;;2.08;0.57;;;37.60;27.40;;;;;;6269269;28;20048;-75
2021/06/22 12:32:34;;;;;;;4.47;0.60;;;37.50;27.40;;;;;;6275940;28;20044;-76
2021/06/22 12:35:35;;;;;;;4.47;0.70;;;37.40;27.40;;;;;;6293853;28;20131;-75
2021/06/22 12:38:39;;;;;;;0.90;0.60;;;37.00;27.60;;;;;;6313028;28;20033;-75
2021/06/22 12:41:40;;;;;;;1.75;0.80;;;36.60;28.10;;;;;;6296781;28;20047;-75
2021/06/22 12:44:41;;;;;;;1.58;0.68;;;36.60;28.00;;;;;;6299257;28;20032;-76
2021/06/22 12:47:52;;;;;;;0.95;0.43;;;36.80;28.00;;;;;;6309420;28;20051;-75
2021/06/22 12:50:54;;;;;;;2.28;0.60;;;36.80;27.70;;;;;;6298230;28;20123;-74
2021/06/22 12:53:55;;;;;;;2.80;0.60;;;36.90;27.50;;;;;;6297327;28;20096;-75
2021/06/22 12:57:01;;;;;;;3.20;0.60;;;36.90;27.50;;;;;;6298273;28;20045;-75
2021/06/22 13:00:03;;;;;;;1.95;0.88;;;36.90;27.10;;;;;;6298926;28;20043;-74
2021/06/22 13:03:14;;;;;;;1.13;0.70;;;37.00;27.10;;;;;;6298279;28;20049;-75
2021/06/22 13:06:44;;;;;;;2.05;1.13;;;36.70;27.50;;;;;;6298708;28;20043;-75
2021/06/22 13:09:46;;;;;;;2.90;0.85;;;36.00;28.00;;;;;;6297292;28;20409;-75
2021/06/22 13:12:50;;;;;;;1.55;0.60;;;35.40;28.60;;;;;;6298023;28;20438;-75
2021/06/22 13:16:10;;;;;;;1.92;0.80;;;35.90;28.20;;;;;;6299701;28;20067;-76
2021/06/22 13:19:16;;;;;;;1.70;0.80;;;36.90;27.30;;;;;;6298946;28;20318;-74
2021/06/22 13:22:20;;;;;;;1.50;0.80;;;36.90;27.10;;;;;;6284000;28;20362;-76
2021/06/22 13:25:21;;;;;;;2.17;0.60;;;36.20;27.70;;;;;;6273646;28;20040;-74
2021/06/22 13:28:22;;;;;;;7.47;0.80;;;35.40;28.50;;;;;;6290099;28;20053;-76
2021/06/22 13:31:23;;;;;;;2.42;0.98;;;34.50;29.30;;;;;;6272850;28;20472;-74
2021/06/22 13:34:31;;;;;;;0.50;0.50;;;33.50;30.30;;;;;;6292382;28;20361;-76
2021/06/22 13:37:32;;;;;;;1.23;0.73;;;32.80;31.60;;;;;;6297313;28;20029;-75
2021/06/22 13:40:35;;;;;;;1.35;0.85;;;32.10;32.60;;;;;;6297072;28;20025;-76
2021/06/22 13:43:38;;;;;;;4.00;0.93;;;31.60;33.50;;;;;;6273152;28;20040;-75
2021/06/22 13:46:40;;;;;;;1.00;0.70;;;31.50;33.70;;;;;;6273956;28;20049;-75
2021/06/22 13:49:43;;;;;;;2.20;0.95;;;31.40;34.00;;;;;;6271187;28;20079;-75
2021/06/22 13:52:51;;;;;;;1.10;0.60;;;31.10;34.60;;;;;;6271734;28;20036;-76
2021/06/22 13:55:53;;;;;;;4.75;1.15;;;30.80;35.10;;;;;;6271337;28;20090;-75
2021/06/22 13:58:56;;;;;;;0.63;0.63;;;30.30;36.90;;;;;;6272462;28;20033;-76
2021/06/22 14:01:57;;;;;;;2.97;1.42;;;29.70;39.30;;;;;;6275522;28;20033;-75
2021/06/22 14:04:59;;;;;;;6.45;1.75;;;29.00;41.90;;;;;;6298745;28;20039;-77
2021/06/22 14:08:03;;;;;;;4.43;1.20;;;28.30;44.40;;;;;;6296732;28;20453;-75
2021/06/22 14:11:04;;;;;;;2.90;0.95;;;27.90;46.80;;;;;;6272094;28;20047;-77
2021/06/22 14:14:05;;;;;;;3.38;1.00;;;27.60;47.10;;;;;;6296853;28;20365;-76
2021/06/22 14:17:06;;;;;;;5.28;1.27;;;27.30;47.90;;;;;;6313930;28;20033;-75
2021/06/22 14:20:08;;;;;;;7.32;1.65;;;27.10;48.80;;;;;;6298307;28;20044;-76
2021/06/22 14:23:11;;;;;;;12.52;1.30;;;26.90;50.80;;;;;;6311201;28;20047;-76
2021/06/22 14:26:13;;;;;;;7.60;1.70;;;26.60;51.70;;;;;;6298613;28;20043;-74
2021/06/22 14:29:14;;;;;;;9.68;1.38;;;26.50;52.70;;;;;;6299005;28;20036;-76
2021/06/22 14:32:17;;;;;;;5.40;1.60;;;26.30;53.70;;;;;;6307312;28;20033;-75
2021/06/22 14:35:18;;;;;;;5.28;1.50;;;26.20;53.90;;;;;;6309661;28;20194;-76
2021/06/22 14:38:20;;;;;;;2.78;1.48;;;26.20;54.00;;;;;;6303473;28;20040;-75
2021/06/22 14:41:21;;;;;;;3.58;1.48;;;26.10;54.00;;;;;;6317992;28;20131;-75
2021/06/22 14:44:22;;;;;;;2.17;1.00;;;26.10;53.90;;;;;;6298337;28;20033;-76
2021/06/22 14:47:23;;;;;;;4.68;1.63;;;26.10;53.40;;;;;;6298788;28;20048;-75
2021/06/22 14:50:25;;;;;;;3.42;1.08;;;26.10;53.00;;;;;;6297927;28;20115;-75
2021/06/22 14:53:26;;;;;;;1.40;0.90;;;26.10;52.30;;;;;;6280917;28;20040;-75
2021/06/22 14:56:26;;;;;;;2.35;0.90;;;26.10;51.80;;;;;;6297277;28;20055;-75
2021/06/22 14:59:27;;;;;;;2.10;1.30;;;26.10;52.00;;;;;;6297861;28;20437;-76
2021/06/22 15:02:29;;;;;;;3.45;1.27;;;26.20;51.70;;;;;;6294505;28;20041;-74
2021/06/22 15:05:30;;;;;;;3.60;1.25;;;26.60;51.40;;;;;;6297142;28;20169;-74
2021/06/22 15:08:31;;;;;;;2.65;1.10;;;27.70;49.50;;;;;;6313375;28;20066;-76
2021/06/22 15:11:32;;;;;;;10.25;1.33;;;28.50;48.10;;;;;;6298377;28;20105;-76
2021/06/22 15:14:33;;;;;;;6.35;0.90;;;29.20;46.30;;;;;;6297004;28;20037;-74
2021/06/22 15:17:36;;;;;;;2.17;0.88;;;29.70;45.20;;;;;;6312959;28;20028;-75
2021/06/22 15:20:39;;;;;;;1.67;0.98;;;29.60;44.90;;;;;;6279293;28;20446;-75
2021/06/22 15:23:40;;;;;;;1.83;0.90;;;29.20;45.40;;;;;;6292641;28;20108;-75
2021/06/22 15:26:41;;;;;;;1.88;1.10;;;28.80;46.10;;;;;;6296517;28;20052;-75
2021/06/22 15:29:42;;;;;;;2.25;1.15;;;28.80;47.30;;;;;;6280551;28;20043;-75
2021/06/22 15:32:46;;;;;;;4.70;1.20;;;29.60;45.70;;;;;;6298938;28;20037;-75
2021/06/22 15:35:47;;;;;;;1.60;1.05;;;30.60;44.10;;;;;;6321306;28;20042;-75
2021/06/22 15:38:50;;;;;;;4.10;1.70;;;31.50;42.60;;;;;;6296581;28;20110;-75
2021/06/22 15:41:51;;;;;;;3.22;1.23;;;31.70;41.70;;;;;;6296514;28;20416;-75
2021/06/22 15:44:52;;;;;;;2.85;1.17;;;31.10;42.40;;;;;;6279639;28;20449;-75
2021/06/22 15:47:53;;;;;;;1.45;0.98;;;30.30;43.50;;;;;;6297650;28;20039;-76
2021/06/22 15:50:55;;;;;;;2.38;1.15;;;29.60;44.50;;;;;;6294897;28;20029;-76
2021/06/22 15:53:56;;;;;;;3.78;0.93;;;29.00;45.40;;;;;;6279673;28;20036;-76
2021/06/22 15:56:57;;;;;;;3.22;1.20;;;28.60;46.20;;;;;;6296169;28;20128;-77
2021/06/22 15:59:58;;;;;;;1.90;0.80;;;28.60;46.30;;;;;;6277340;28;20029;-77